Terminal Aerodrome Forecast
Issued by NWS Albany, NY

Home | Current Version | Previous Version | Text Only | Print | Product List | Glossary On
Versions: 1 2 3 4 5 6 7 8 9 10 11 12 13 14 15 16 17 18 19 20 21 22 23
462
FTUS41 KALY 120520
TAFALB
TAF
KALB 120520Z 1206/1306 30007KT P6SM FEW040 FEW100
     FM121400 19004KT P6SM SCT040
     FM122100 20008KT P6SM BKN050
     FM130300 21005KT P6SM VCSH BKN060 BKN080=

USA.gov is the U.S. government's official web portal to all federal, state and local government web resources and services.